Islander Express — WCJ6211 — position and weather

sailwx.info

Track history (hours):
 
Tides and Currents Weather Stations Pressure Air Temp Water Temp Dewpoint Dewpoint Depression Visibility Wind Speed Wind Dir Waves Ship Positions

Islander Express

Owner: RGWT INC, Long Beach, CA. More information available from US FCC via Universal Licensing System and Coast Guard Vessel Documentation Center.

Last reported at 2018-May-24 18:33 UTC. Time now 2018-May-24 21:05 UTC.
Position N 33°37' W 118°13'.

Length 37 m; draft 1 m.

Type: High speed craft. MMSI: 366943970.

Date/timePositionNaut miles runAvg speedWind from/ knotsBaromVisibWave heightAir tempDewpointWater temp
2018-May-24 18:33N 33°37' W 118°13'226.1
2018-May-24 18:29N 33°38' W 118°13'815.7
2018-May-24 18:00N 33°46' W 118°12'0 0.0
2018-May-24 17:30N 33°46' W 118°12'0 0.0
2018-May-24 17:00N 33°46' W 118°12'0 0.0
2018-May-24 16:30N 33°46' W 118°12'0 0.0
2018-May-24 16:00N 33°46' W 118°12'0 0.0
2018-May-24 15:30N 33°46' W 118°12'0 0.0
2018-May-24 15:01N 33°46' W 118°12'0 0.0
2018-May-24 14:30N 33°46' W 118°12'0 0.0
2018-May-24 14:01N 33°46' W 118°12'0 0.0
2018-May-24 13:30N 33°46' W 118°12'0 0.0
2018-May-23 21:01N 33°46' W 118°12'0 0.0
2018-May-23 21:00N 33°46' W 118°12'0 0.0
2018-May-23 13:03N 33°46' W 118°12'0 0.0
2018-May-23 13:01N 33°46' W 118°12'0 0.0
2018-May-23 12:24N 33°46' W 118°12'0 0.0
2018-May-22 20:48N 33°46' W 118°12'0 0.0
2018-May-22 20:30N 33°46' W 118°12'0 0.0
2018-May-22 20:00N 33°46' W 118°12'0 0.0
2018-May-22 19:30N 33°46' W 118°12'0 0.0
2018-May-22 19:00N 33°46' W 118°12'0 0.0
2018-May-22 18:30N 33°46' W 118°12'0 0.0
2018-May-22 18:00N 33°46' W 118°12'0 0.0
2018-May-22 17:30N 33°46' W 118°12'0 0.0
2018-May-22 17:00N 33°46' W 118°12'0 0.0
2018-May-22 16:30N 33°46' W 118°12'0 0.0
2018-May-22 16:00N 33°46' W 118°12'0 0.0
2018-May-22 15:30N 33°46' W 118°12'0 0.0
2018-May-22 15:00N 33°46' W 118°12'0 0.0
2018-May-22 14:30N 33°46' W 118°12'0 0.0
2018-May-22 14:00N 33°46' W 118°12'0 0.0
2018-May-22 13:30N 33°46' W 118°12'0 0.1
2018-May-22 13:00N 33°46' W 118°12'0 0.1
2018-May-22 12:30N 33°46' W 118°12'0 0.0
2018-May-21 21:22N 33°46' W 118°12'1 3.5
2018-May-21 21:00N 33°45' W 118°11'9 3.7
2018-May-21 18:32N 33°36' W 118°15'125.2
2018-May-21 18:30N 33°37' W 118°14'918.1
2018-May-21 18:00N 33°46' W 118°12'0 0.3
2018-May-21 17:30N 33°46' W 118°12'0 0.0
2018-May-21 17:00N 33°46' W 118°12'2 4.1
2018-May-21 16:31N 33°44' W 118°11'5 8.9
2018-May-21 15:59N 33°45' W 118°16'0 0.0
2018-May-21 15:31N 33°45' W 118°16'0 0.0
2018-May-21 15:01N 33°45' W 118°16'0 0.0
2018-May-21 14:30N 33°45' W 118°16'0 0.1
2018-May-21 14:01N 33°45' W 118°16'0 0.1
2018-May-21 13:30N 33°45' W 118°16'0 0.0
2018-May-21 13:00N 33°45' W 118°16'0 0.0
2018-May-21 03:23N 33°45' W 118°16'2 4.5
2018-May-21 03:01N 33°43' W 118°16'5 2.3
2018-May-21 00:40N 33°38' W 118°16'425.9
2018-May-21 00:31N 33°42' W 118°15'3 6.5
2018-May-21 00:00N 33°45' W 118°16'0 0.0
2018-May-20 23:30N 33°45' W 118°16'1 2.8
2018-May-20 23:01N 33°44' W 118°16'7 2.8
2018-May-20 20:35N 33°37' W 118°16'225.7
2018-May-20 20:30N 33°39' W 118°16'612.8
2018-May-20 20:01N 33°45' W 118°16'0 0.0
2018-May-20 19:31N 33°45' W 118°16'0 0.0
2018-May-20 19:00N 33°45' W 118°16'2 3.5
2018-May-20 18:31N 33°43' W 118°16'6 2.5
2018-May-20 16:15N 33°38' W 118°16'622.4
2018-May-20 16:00N 33°43' W 118°16'2 3.5
2018-May-20 15:31N 33°45' W 118°16'0 0.0
2018-May-20 15:00N 33°45' W 118°16'0 0.0
2018-May-20 03:19N 33°45' W 118°16'1 4.6
2018-May-20 03:00N 33°43' W 118°16'6 2.4
2018-May-20 00:35N 33°38' W 118°16'225.7
2018-May-20 00:31N 33°40' W 118°16'510.8
2018-May-20 00:01N 33°45' W 118°16'0 0.0
2018-May-19 23:30N 33°45' W 118°16'1 2.6
2018-May-19 23:00N 33°44' W 118°16'6 1.9
2018-May-19 20:04N 33°38' W 118°19'225.1
2018-May-19 20:00N 33°39' W 118°18'611.5
2018-May-19 19:30N 33°45' W 118°16'0 0.0
2018-May-19 18:59N 33°45' W 118°16'2 3.2
2018-May-19 18:31N 33°43' W 118°16'7 2.9
2018-May-19 15:57N 33°36' W 118°16'818.1
2018-May-19 15:30N 33°44' W 118°17'1 2.0
2018-May-19 15:00N 33°45' W 118°16'0 0.1
2018-May-19 14:30N 33°45' W 118°16'0 0.0
2018-May-19 14:00N 33°45' W 118°16'0 0.0
2018-May-19 13:30N 33°45' W 118°16'0 0.0
2018-May-18 23:23N 33°45' W 118°16'2 4.2
2018-May-18 23:00N 33°43' W 118°16'4 1.5
2018-May-18 19:59N 33°39' W 118°18'612.3
2018-May-18 19:31N 33°45' W 118°16'0 0.2
2018-May-18 19:01N 33°45' W 118°16'2 3.1
2018-May-18 18:30N 33°43' W 118°16'4 1.7
2018-May-18 16:11N 33°39' W 118°16'421.4
2018-May-18 16:00N 33°43' W 118°16'2 3.9
2018-May-18 15:30N 33°45' W 118°16'0 0.0
2018-May-18 15:00N 33°45' W 118°16'0 0.0
2018-May-18 14:31N 33°45' W 118°16'0 0.0
2018-May-18 14:00N 33°45' W 118°16'0 0.0
2018-May-18 13:30N 33°45' W 118°16'0 0.0
2018-May-18 13:01N 33°45' W 118°16'0 0.0
2018-May-18 12:31N 33°45' W 118°16'0 0.0
2018-May-17 03:06N 33°45' W 118°16'0 0.0
2018-May-17 03:00N 33°45' W 118°16'0 0.0
2018-May-17 02:30N 33°45' W 118°16'0 0.0
2018-May-17 02:00N 33°45' W 118°16'1 3.0
2018-May-17 01:31N 33°43' W 118°16'3 1.0
2018-May-16 22:19N 33°40' W 118°17'412.9
2018-May-16 22:00N 33°44' W 118°17'1 1.1
2018-May-16 21:30N 33°45' W 118°16'0 0.0
2018-May-16 21:00N 33°45' W 118°16'0 0.0
2018-May-16 20:30N 33°45' W 118°16'0 0.1
2018-May-16 20:00N 33°45' W 118°16'0 0.0
2018-May-16 19:30N 33°45' W 118°16'7 2.1
2018-May-16 16:15N 33°38' W 118°16'521.9
2018-May-16 16:00N 33°43' W 118°16'2 3.1
2018-May-16 15:30N 33°45' W 118°16'0 0.0
2018-May-16 15:01N 33°45' W 118°16'0 0.0
2018-May-16 14:30N 33°45' W 118°16'0 0.0
2018-May-16 14:00N 33°45' W 118°16'0 0.0
2018-May-16 13:31N 33°45' W 118°16'0 0.0
2018-May-16 13:00N 33°45' W 118°16'0 0.0
2018-May-16 12:30N 33°45' W 118°16'0 0.0
2018-May-15 21:23N 33°45' W 118°16'0 0.0
2018-May-15 21:00N 33°45' W 118°16'0 0.0
2018-May-15 20:30N 33°45' W 118°16'0 0.0
2018-May-15 20:01N 33°45' W 118°16'0 0.0
2018-May-15 19:30N 33°45' W 118°16'0 0.0
2018-May-15 19:01N 33°45' W 118°16'0 0.0
2018-May-15 18:31N 33°45' W 118°16'0 0.0
2018-May-15 18:01N 33°45' W 118°16'0 0.0
2018-May-15 17:31N 33°45' W 118°16'0 0.0
2018-May-15 17:00N 33°45' W 118°16'0 0.0
2018-May-15 16:31N 33°45' W 118°16'0 0.0
2018-May-15 16:01N 33°45' W 118°16'0 0.0
2018-May-15 15:30N 33°45' W 118°16'0 0.0
2018-May-15 14:59N 33°45' W 118°16'0 0.1
2018-May-15 14:30N 33°45' W 118°16'0 0.0
2018-May-15 13:04N 33°45' W 118°16'0 0.0
2018-May-15 13:00N 33°45' W 118°16'0 0.0
2018-May-15 01:53N 33°45' W 118°16'2 4.2
2018-May-15 01:30N 33°43' W 118°16'6 1.9
2018-May-14 22:27N 33°38' W 118°19'715.1
2018-May-14 22:00N 33°44' W 118°17'1 1.1
2018-May-14 21:30N 33°45' W 118°16'0 0.0
2018-May-14 21:00N 33°45' W 118°16'  
Track history (hours):
 
Tides and Currents Weather Stations Pressure Air Temp Water Temp Dewpoint Dewpoint Depression Visibility Wind Speed Wind Dir Waves Ship Positions

Islander Express

Owner: RGWT INC, Long Beach, CA. More information available from US FCC via Universal Licensing System and Coast Guard Vessel Documentation Center.

Last reported at 2018-May-24 18:33 UTC. Time now 2018-May-24 21:05 UTC.
Position N 33°37' W 118°13'.

Length 37 m; draft 1 m.

Type: High speed craft. MMSI: 366943970.

Date/timePositionNaut miles runAvg speedWind from/ knotsBaromVisibWave heightAir tempDewpointWater temp
2018-May-24 18:33N 33°37' W 118°13'226.1
2018-May-24 18:29N 33°38' W 118°13'815.7
2018-May-24 18:00N 33°46' W 118°12'0 0.0
2018-May-24 17:30N 33°46' W 118°12'0 0.0
2018-May-24 17:00N 33°46' W 118°12'0 0.0
2018-May-24 16:30N 33°46' W 118°12'0 0.0
2018-May-24 16:00N 33°46' W 118°12'0 0.0
2018-May-24 15:30N 33°46' W 118°12'0 0.0
2018-May-24 15:01N 33°46' W 118°12'0 0.0
2018-May-24 14:30N 33°46' W 118°12'0 0.0
2018-May-24 14:01N 33°46' W 118°12'0 0.0
2018-May-24 13:30N 33°46' W 118°12'0 0.0
2018-May-23 21:01N 33°46' W 118°12'0 0.0
2018-May-23 21:00N 33°46' W 118°12'0 0.0
2018-May-23 13:03N 33°46' W 118°12'0 0.0
2018-May-23 13:01N 33°46' W 118°12'0 0.0
2018-May-23 12:24N 33°46' W 118°12'0 0.0
2018-May-22 20:48N 33°46' W 118°12'0 0.0
2018-May-22 20:30N 33°46' W 118°12'0 0.0
2018-May-22 20:00N 33°46' W 118°12'0 0.0
2018-May-22 19:30N 33°46' W 118°12'0 0.0
2018-May-22 19:00N 33°46' W 118°12'0 0.0
2018-May-22 18:30N 33°46' W 118°12'0 0.0
2018-May-22 18:00N 33°46' W 118°12'0 0.0
2018-May-22 17:30N 33°46' W 118°12'0 0.0
2018-May-22 17:00N 33°46' W 118°12'0 0.0
2018-May-22 16:30N 33°46' W 118°12'0 0.0
2018-May-22 16:00N 33°46' W 118°12'0 0.0
2018-May-22 15:30N 33°46' W 118°12'0 0.0
2018-May-22 15:00N 33°46' W 118°12'0 0.0
2018-May-22 14:30N 33°46' W 118°12'0 0.0
2018-May-22 14:00N 33°46' W 118°12'0 0.0
2018-May-22 13:30N 33°46' W 118°12'0 0.1
2018-May-22 13:00N 33°46' W 118°12'0 0.1
2018-May-22 12:30N 33°46' W 118°12'0 0.0
2018-May-21 21:22N 33°46' W 118°12'1 3.5
2018-May-21 21:00N 33°45' W 118°11'9 3.7
2018-May-21 18:32N 33°36' W 118°15'125.2
2018-May-21 18:30N 33°37' W 118°14'918.1
2018-May-21 18:00N 33°46' W 118°12'0 0.3
2018-May-21 17:30N 33°46' W 118°12'0 0.0
2018-May-21 17:00N 33°46' W 118°12'2 4.1
2018-May-21 16:31N 33°44' W 118°11'5 8.9
2018-May-21 15:59N 33°45' W 118°16'0 0.0
2018-May-21 15:31N 33°45' W 118°16'0 0.0
2018-May-21 15:01N 33°45' W 118°16'0 0.0
2018-May-21 14:30N 33°45' W 118°16'0 0.1
2018-May-21 14:01N 33°45' W 118°16'0 0.1
2018-May-21 13:30N 33°45' W 118°16'0 0.0
2018-May-21 13:00N 33°45' W 118°16'0 0.0
2018-May-21 03:23N 33°45' W 118°16'2 4.5
2018-May-21 03:01N 33°43' W 118°16'5 2.3
2018-May-21 00:40N 33°38' W 118°16'425.9
2018-May-21 00:31N 33°42' W 118°15'3 6.5
2018-May-21 00:00N 33°45' W 118°16'0 0.0
2018-May-20 23:30N 33°45' W 118°16'1 2.8
2018-May-20 23:01N 33°44' W 118°16'7 2.8
2018-May-20 20:35N 33°37' W 118°16'225.7
2018-May-20 20:30N 33°39' W 118°16'612.8
2018-May-20 20:01N 33°45' W 118°16'0 0.0
2018-May-20 19:31N 33°45' W 118°16'0 0.0
2018-May-20 19:00N 33°45' W 118°16'2 3.5
2018-May-20 18:31N 33°43' W 118°16'6 2.5
2018-May-20 16:15N 33°38' W 118°16'622.4
2018-May-20 16:00N 33°43' W 118°16'2 3.5
2018-May-20 15:31N 33°45' W 118°16'0 0.0
2018-May-20 15:00N 33°45' W 118°16'0 0.0
2018-May-20 03:19N 33°45' W 118°16'1 4.6
2018-May-20 03:00N 33°43' W 118°16'6 2.4
2018-May-20 00:35N 33°38' W 118°16'225.7
2018-May-20 00:31N 33°40' W 118°16'510.8
2018-May-20 00:01N 33°45' W 118°16'0 0.0
2018-May-19 23:30N 33°45' W 118°16'1 2.6
2018-May-19 23:00N 33°44' W 118°16'6 1.9
2018-May-19 20:04N 33°38' W 118°19'225.1
2018-May-19 20:00N 33°39' W 118°18'611.5
2018-May-19 19:30N 33°45' W 118°16'0 0.0
2018-May-19 18:59N 33°45' W 118°16'2 3.2
2018-May-19 18:31N 33°43' W 118°16'7 2.9
2018-May-19 15:57N 33°36' W 118°16'818.1
2018-May-19 15:30N 33°44' W 118°17'1 2.0
2018-May-19 15:00N 33°45' W 118°16'0 0.1
2018-May-19 14:30N 33°45' W 118°16'0 0.0
2018-May-19 14:00N 33°45' W 118°16'0 0.0
2018-May-19 13:30N 33°45' W 118°16'0 0.0
2018-May-18 23:23N 33°45' W 118°16'2 4.2
2018-May-18 23:00N 33°43' W 118°16'4 1.5
2018-May-18 19:59N 33°39' W 118°18'612.3
2018-May-18 19:31N 33°45' W 118°16'0 0.2
2018-May-18 19:01N 33°45' W 118°16'2 3.1
2018-May-18 18:30N 33°43' W 118°16'4 1.7
2018-May-18 16:11N 33°39' W 118°16'421.4
2018-May-18 16:00N 33°43' W 118°16'2 3.9
2018-May-18 15:30N 33°45' W 118°16'0 0.0
2018-May-18 15:00N 33°45' W 118°16'0 0.0
2018-May-18 14:31N 33°45' W 118°16'0 0.0
2018-May-18 14:00N 33°45' W 118°16'0 0.0
2018-May-18 13:30N 33°45' W 118°16'0 0.0
2018-May-18 13:01N 33°45' W 118°16'0 0.0
2018-May-18 12:31N 33°45' W 118°16'0 0.0
2018-May-17 03:06N 33°45' W 118°16'0 0.0
2018-May-17 03:00N 33°45' W 118°16'0 0.0
2018-May-17 02:30N 33°45' W 118°16'0 0.0
2018-May-17 02:00N 33°45' W 118°16'1 3.0
2018-May-17 01:31N 33°43' W 118°16'3 1.0
2018-May-16 22:19N 33°40' W 118°17'412.9
2018-May-16 22:00N 33°44' W 118°17'1 1.1
2018-May-16 21:30N 33°45' W 118°16'0 0.0
2018-May-16 21:00N 33°45' W 118°16'0 0.0
2018-May-16 20:30N 33°45' W 118°16'0 0.1
2018-May-16 20:00N 33°45' W 118°16'0 0.0
2018-May-16 19:30N 33°45' W 118°16'7 2.1
2018-May-16 16:15N 33°38' W 118°16'521.9
2018-May-16 16:00N 33°43' W 118°16'2 3.1
2018-May-16 15:30N 33°45' W 118°16'0 0.0
2018-May-16 15:01N 33°45' W 118°16'0 0.0
2018-May-16 14:30N 33°45' W 118°16'0 0.0
2018-May-16 14:00N 33°45' W 118°16'0 0.0
2018-May-16 13:31N 33°45' W 118°16'0 0.0
2018-May-16 13:00N 33°45' W 118°16'0 0.0
2018-May-16 12:30N 33°45' W 118°16'0 0.0
2018-May-15 21:23N 33°45' W 118°16'0 0.0
2018-May-15 21:00N 33°45' W 118°16'0 0.0
2018-May-15 20:30N 33°45' W 118°16'0 0.0
2018-May-15 20:01N 33°45' W 118°16'0 0.0
2018-May-15 19:30N 33°45' W 118°16'0 0.0
2018-May-15 19:01N 33°45' W 118°16'0 0.0
2018-May-15 18:31N 33°45' W 118°16'0 0.0
2018-May-15 18:01N 33°45' W 118°16'0 0.0
2018-May-15 17:31N 33°45' W 118°16'0 0.0
2018-May-15 17:00N 33°45' W 118°16'0 0.0
2018-May-15 16:31N 33°45' W 118°16'0 0.0
2018-May-15 16:01N 33°45' W 118°16'0 0.0
2018-May-15 15:30N 33°45' W 118°16'0 0.0
2018-May-15 14:59N 33°45' W 118°16'0 0.1
2018-May-15 14:30N 33°45' W 118°16'0 0.0
2018-May-15 13:04N 33°45' W 118°16'0 0.0
2018-May-15 13:00N 33°45' W 118°16'0 0.0
2018-May-15 01:53N 33°45' W 118°16'2 4.2
2018-May-15 01:30N 33°43' W 118°16'6 1.9
2018-May-14 22:27N 33°38' W 118°19'715.1
2018-May-14 22:00N 33°44' W 118°17'1 1.1
2018-May-14 21:30N 33°45' W 118°16'0 0.0
2018-May-14 21:00N 33°45' W 118°16'  

Dump ship's entire track history